• Join FlightAware (Why Join?)
  • Login
  • US Flag 
05:20AM EDT


 

Airport Tracker/Info


-or-


 

Live Flight TrackerFlight Track Log ✈ UAL6025 ✈ 14-Feb-2014 ✈ KIAD - KTUL

Flight Track Log - Related Links

Times and Time Zones

All times are in EST time to prevent confusion due to time zone crossing. See the UAL6025 flight status page for this flight to view local times or setup timezone preferences in your user account.

Time Position Orientation Groundspeed Altitude Reporting Facility
EST Latitude Longitude Course Direction KTS MPH feet Rate Location/Type
06:20PM 38.9000 -77.4333 198° South 166 191 2,200  Level Potomac TRACON
06:22PM 38.7833 -77.4833 198° South 240 276 5,300 1,680 Climbing Potomac TRACON
06:23PM 38.7333 -77.5333 218° Southwest 254 292 7,400 1,740 Climbing Potomac TRACON
06:25PM 38.6208 -77.6325 215° Southwest 256 295 10,700 1,500 Climbing Washington Center
06:26PM 38.5511 -77.6917 214° Southwest 279 321 12,100 1,260 Climbing Washington Center
06:27PM 38.4914 -77.7614 222° Southwest 293 337 13,300 1,200 Climbing Washington Center
06:28PM 38.4439 -77.8503 236° Southwest 298 343 14,500 1,020 Climbing Washington Center
06:29PM 38.3881 -77.9414 232° Southwest 303 349 15,400 1,140 Climbing Washington Center
06:30PM 38.3508 -78.0300 242° Southwest 308 354 16,900 1,260 Climbing Washington Center
06:31PM 38.2967 -78.1314 236° Southwest 316 364 18,000 1,260 Climbing Washington Center
06:32PM 38.2486 -78.2225 236° Southwest 316 364 19,400 1,260 Climbing Washington Center
06:33PM 38.1967 -78.3158 235° Southwest 322 371 20,600 1,140 Climbing Washington Center
06:34PM 38.1486 -78.4117 237° Southwest 322 371 21,800 1,140 Climbing Washington Center
06:35PM 38.1064 -78.5103 241° Southwest 322 371 22,900 1,080 Climbing Washington Center
06:36PM 38.0772 -78.6017 248° West 317 365 24,000 1,140 Climbing Washington Center
06:37PM 38.0408 -78.7136 248° West 317 365 25,300 1,200 Climbing Washington Center
06:38PM 38.0047 -78.8147 246° West 317 365 26,500 1,140 Climbing Washington Center
06:39PM 37.9731 -78.9108 247° West 312 359 27,600 1,080 Climbing Washington Center
06:40PM 37.9392 -79.0069 246° West 312 359 28,700 1,140 Climbing Washington Center
06:41PM 37.9094 -79.0897 246° West 306 352 29,900 1,140 Climbing Washington Center
06:42PM 37.8694 -79.1772 240° Southwest 300 345 31,000 1,080 Climbing Washington Center
06:43PM 37.8272 -79.2619 238° Southwest 294 338 32,100 1,080 Climbing Washington Center
06:44PM 37.7850 -79.3467 238° Southwest 289 333 33,200 900 Climbing Washington Center
06:45PM 37.7403 -79.4364 238° Southwest 289 333 34,000 360 Climbing Washington Center
06:46PM 37.6983 -79.5131 235° Southwest 294 338 34,000  Level Washington Center
06:47PM 37.6469 -79.6153 238° Southwest 314 361 34,000  Level Washington Center
06:48PM 37.5956 -79.7175 238° Southwest 331 381 34,000  Level Washington Center
06:49PM 37.5439 -79.8194 237° Southwest 342 394 34,000  Level Washington Center
06:50PM 37.4900 -79.9289 238° Southwest 367 422 34,000  Level Washington Center
06:51PM 37.4361 -80.0331 237° Southwest 367 422 34,000  Level Washington Center
06:52PM 37.3842 -80.1372 238° Southwest 362 417 34,000  Level Washington Center
06:53PM 37.3219 -80.2575 237° Southwest 344 396 34,000  Level Atlanta Center
06:54PM 37.2689 -80.3592 237° Southwest 350 403 34,000  Level Atlanta Center
06:55PM 37.2194 -80.4528 236° Southwest 350 403 34,000  Level Atlanta Center
06:56PM 37.1681 -80.5539 237° Southwest 350 403 34,000  Level Atlanta Center
06:57PM 37.1147 -80.6553 237° Southwest 350 403 34,000 -60 Level Atlanta Center
06:58PM 37.0678 -80.7639 242° Southwest 350 403 33,900 -600 Descending Atlanta Center
06:59PM 37.0267 -80.8747 245° Southwest 350 403 32,900 -960 Descending Atlanta Center
07:00PM 36.9842 -81.0039 248° West 360 414 32,000 -480 Descending Atlanta Center
07:01PM 36.9411 -81.1172 245° Southwest 360 414 32,000 780 Level Atlanta Center
07:02PM 36.9019 -81.2250 246° West 360 414 33,600 960 Climbing Atlanta Center
07:03PM 36.8644 -81.3250 245° Southwest 342 394 34,000 300 Climbing Atlanta Center
07:04PM 36.8333 -81.4194 248° West 335 386 34,200 780 Climbing Atlanta Center
07:05PM 36.7956 -81.5192 245° Southwest 325 374 35,600 900 Climbing Atlanta Center
07:06PM 36.7603 -81.6239 247° West 313 360 36,000 180 Climbing Atlanta Center
07:07PM 36.7247 -81.7258 247° West 313 360 36,000  Level Atlanta Center
07:08PM 36.6850 -81.8333 245° Southwest 333 383 36,000  Level Atlanta Center
07:09PM 36.6431 -81.9483 246° West 356 410 36,000  Level Atlanta Center
07:10PM 36.5992 -82.0658 245° Southwest 368 423 36,000  Level Atlanta Center
07:11PM 36.5553 -82.1883 246° West 375 432 36,000  Level Atlanta Center
07:12PM 36.5069 -82.3083 243° Southwest 381 438 36,000  Level Atlanta Center
07:13PM 36.4667 -82.4175 245° Southwest 386 444 36,000  Level Atlanta Center
07:14PM 36.4203 -82.5422 245° Southwest 391 450 36,000  Level Atlanta Center
07:15PM 36.3758 -82.6644 246° West 391 450 36,000  Level Atlanta Center
07:16PM 36.3292 -82.7836 244° Southwest 391 450 36,000  Level Atlanta Center
07:17PM 36.2825 -82.9056 245° Southwest 391 450 36,000  Level Atlanta Center
07:18PM 36.2378 -83.0269 245° Southwest 391 450 36,000  Level Atlanta Center
07:19PM 36.1906 -83.1461 244° Southwest 384 442 36,000  Level Atlanta Center
07:20PM 36.1433 -83.2675 244° Southwest 389 448 36,000  Level Atlanta Center
07:21PM 36.0983 -83.3886 245° Southwest 389 448 36,000  Level Atlanta Center
07:22PM 36.0467 -83.5200 244° Southwest 383 441 36,000  Level Atlanta Center
07:23PM 36.0033 -83.6408 246° West 389 448 36,000  Level Atlanta Center
07:24PM 35.9600 -83.7617 246° West 389 448 36,000  Level Atlanta Center
07:25PM 35.9142 -83.8822 245° Southwest 389 448 36,000  Level Atlanta Center
07:26PM 35.8706 -84.0028 246° West 389 448 36,000  Level Atlanta Center
07:27PM 35.8183 -84.1206 241° Southwest 389 448 36,000  Level Atlanta Center
07:28PM 35.7619 -84.2306 238° Southwest 389 448 36,000  Level Atlanta Center
07:29PM 35.6992 -84.3406 235° Southwest 389 448 36,000  Level Atlanta Center
07:30PM 35.6319 -84.4450 232° Southwest 394 453 36,000  Level Atlanta Center
07:31PM 35.5628 -84.5494 231° Southwest 394 453 36,000  Level Atlanta Center
07:32PM 35.5103 -84.6486 237° Southwest 394 453 36,000  Level Atlanta Center
07:33PM 35.5158 -84.7786 273° West 361 415 36,000  Level Atlanta Center
07:34PM 35.5317 -84.9064 279° West 366 421 36,000  Level Atlanta Center
07:36PM 35.5564 -85.1097 279° West 386 444 36,000  Level Memphis Center
07:37PM 35.5725 -85.2439 278° West 391 450 36,000  Level Memphis Center
07:38PM 35.5886 -85.3797 278° West 396 456 36,000  Level Memphis Center
07:39PM 35.6072 -85.5397 278° West 395 455 36,000  Level Memphis Center
07:40PM 35.6225 -85.6706 278° West 389 448 36,000  Level Memphis Center
07:41PM 35.6378 -85.8053 278° West 393 452 36,000  Level Memphis Center
07:42PM 35.6525 -85.9400 278° West 399 459 36,000  Level Memphis Center
07:43PM 35.6681 -86.0786 278° West 403 464 36,000  Level Memphis Center
07:44PM 35.6842 -86.2153 278° West 401 461 36,000  Level Memphis Center
07:45PM 35.6983 -86.3553 277° West 405 466 36,000  Level Memphis Center
07:46PM 35.7142 -86.4958 278° West 409 471 36,000  Level Memphis Center
07:47PM 35.7311 -86.6606 277° West 410 472 36,000  Level Memphis Center
07:48PM 35.7461 -86.8003 278° West 408 470 36,000  Level Memphis Center
07:49PM 35.7614 -86.9381 278° West 404 465 36,000  Level Memphis Center
07:50PM 35.7750 -87.0731 277° West 397 457 36,000  Level Memphis Center
07:51PM 35.7889 -87.2083 277° West 393 452 36,000  Level Memphis Center
07:52PM 35.8028 -87.3447 277° West 396 456 36,000  Level Memphis Center
07:53PM 35.8169 -87.4819 277° West 398 458 36,000  Level Memphis Center
07:54PM 35.8303 -87.6197 277° West 400 460 36,000  Level Memphis Center
07:55PM 35.8436 -87.7575 277° West 401 461 36,000  Level Memphis Center
07:56PM 35.8569 -87.8958 277° West 403 464 36,000  Level Memphis Center
07:57PM 35.8719 -88.0497 277° West 388 447 36,000  Level Memphis Center
07:58PM 35.8842 -88.1739 277° West 385 443 36,000  Level Memphis Center
07:59PM 35.8958 -88.3025 276° West 380 437 36,000  Level Memphis Center
08:00PM 35.9072 -88.4311 276° West 377 434 36,000  Level Memphis Center
08:01PM 35.9186 -88.5606 276° West 378 435 36,000  Level Memphis Center
08:03PM 35.9331 -88.7164 277° West 380 437 36,000  Level Memphis Center
08:04PM 35.9433 -88.8475 276° West 382 440 36,000  Level Memphis Center
08:05PM 35.9511 -88.9792 274° West 382 440 36,000  Level Memphis Center
08:06PM 35.9594 -89.1122 274° West 385 443 36,000  Level Memphis Center
08:07PM 35.9686 -89.2458 275° West 387 445 36,000  Level Memphis Center
08:08PM 35.9761 -89.3803 274° West 389 448 36,000  Level Memphis Center
08:09PM 35.9844 -89.5147 274° West 390 449 36,000  Level Memphis Center
08:10PM 35.9928 -89.6492 274° West 390 449 36,000  Level Memphis Center
08:11PM 36.0000 -89.7828 274° West 389 448 36,000  Level Memphis Center
08:12PM 36.0094 -89.9447 274° West 391 450 36,000  Level Memphis Center
08:13PM 36.0169 -90.0786 274° West 391 450 36,000  Level Memphis Center
08:14PM 36.0236 -90.2117 274° West 390 449 36,000  Level Memphis Center
08:15PM 36.0317 -90.3447 274° West 387 445 36,000  Level Memphis Center
08:16PM 36.0389 -90.4786 274° West 389 448 36,000  Level Memphis Center
08:17PM 36.0453 -90.6117 273° West 388 447 36,000  Level Memphis Center
08:18PM 36.0522 -90.7419 274° West 383 441 36,000  Level Memphis Center
08:19PM 36.0583 -90.8714 273° West 378 435 36,000  Level Memphis Center
08:20PM 36.0656 -91.0264 273° West 377 434 36,000  Level Memphis Center
08:21PM 36.0717 -91.1547 273° West 375 432 36,000  Level Memphis Center
08:22PM 36.0781 -91.2808 274° West 371 427 36,000  Level Memphis Center
08:23PM 36.0836 -91.4075 273° West 368 423 36,000  Level Memphis Center
08:24PM 36.0889 -91.5317 273° West 364 419 36,000 -120 Level Memphis Center
08:25PM 36.0925 -91.6564 272° West 364 419 35,800 -540 Descending Memphis Center
08:26PM 36.0975 -91.7814 273° West 364 419 35,000 -720 Descending Memphis Center
08:27PM 36.1031 -91.9097 273° West 368 423 34,400 -1,200 Descending Memphis Center
08:28PM 36.1103 -92.0628 273° West 370 426 32,600 -1,620 Descending Memphis Center
08:29PM 36.1158 -92.1894 273° West 372 428 31,100 -1,320 Descending Memphis Center
08:30PM 36.1203 -92.3150 273° West 370 426 30,000 -840 Descending Memphis Center
08:31PM 36.1250 -92.4436 273° West 373 429 29,500 -960 Descending Memphis Center
08:32PM 36.1292 -92.5717 272° West 375 432 28,100 -1,440 Descending Memphis Center
08:33PM 36.1344 -92.6978 273° West 373 429 26,600 -1,620 Descending Memphis Center
08:34PM 36.1389 -92.8436 272° West 362 417 24,800 -1,260 Descending Memphis Center
08:35PM 36.1425 -92.9617 272° West 354 407 24,000 -420 Descending Memphis Center
08:36PM 36.1458 -93.0772 272° West 345 397 24,000  Level Memphis Center
08:37PM 36.1483 -93.1939 272° West 342 394 24,000  Level Memphis Center
08:39PM 36.1531 -93.3133 273° West 348 400 24,000  Level Memphis Center
08:40PM 36.1558 -93.4361 272° West 355 409 24,000  Level Memphis Center
08:41PM 36.1589 -93.5581 272° West 357 411 24,000 -300 Level Memphis Center
08:42PM 36.1628 -93.7058 272° West 358 412 23,500 -540 Descending Memphis Center
08:43PM 36.1664 -93.8267 272° West 357 411 23,000 -540 Descending Memphis Center
08:44PM 36.1694 -93.9472 272° West 354 407 22,500 -540 Descending Memphis Center
08:45PM 36.1708 -94.0683 271° West 348 400 21,900 -540 Descending Memphis Center
08:46PM 36.1750 -94.1858 273° West 343 395 21,400 -540 Descending Memphis Center
08:47PM 36.1753 -94.2992 270° West 333 383 20,900 -540 Descending Memphis Center
08:48PM 36.1786 -94.4100 272° West 325 374 20,300 -660 Descending Memphis Center
08:48PM 36.1819 -94.4783 273° West 325 374 19,900 -960 Descending Kansas City Center
08:49PM 36.1844 -94.5969 272° West 338 389 18,900 -1,080 Descending Kansas City Center
08:50PM 36.1853 -94.7158 271° West 344 396 17,800 -1,200 Descending Kansas City Center
08:51PM 36.1867 -94.8297 271° West 335 386 16,500 -1,500 Descending Kansas City Center
08:53PM 36.1892 -94.9983 271° West 307 353 14,100 -1,560 Descending Memphis Center
08:53PM 36.1903 -95.0414 272° West 304 350 13,400 -1,620 Descending Kansas City Center
08:54PM 36.1917 -95.1364 271° West 308 354 12,100 -1,860 Descending Kansas City Center
08:54PM 36.1917 -95.1689 270° West 305 351 11,500 -1,500 Descending Kansas City Center
08:55PM 36.1931 -95.2447 271° West 314 361 10,600 -1,200 Descending Kansas City Center
08:55PM 36.1939 -95.2739 272° West 300 345 10,300 -1,020 Descending Kansas City Center
08:56PM 36.1936 -95.3200 270° West 260 299 9,800 -1,380 Descending Kansas City Center
08:57PM 36.1950 -95.3600 272° West 260 299 8,900 -1,680 Descending Kansas City Center
08:57PM 36.1947 -95.4025 270° West 233 268 8,100 -1,560 Descending Kansas City Center
08:58PM 36.1961 -95.4442 272° West 245 282 7,300 -1,260 Descending Kansas City Center
08:58PM 36.1964 -95.4931 270° West 243 280 6,700 -1,260 Descending Kansas City Center
08:59PM 36.1964 -95.5294 270° West 245 282 6,000 -1,500 Descending Kansas City Center
08:59PM 36.1956 -95.5786 269° West 247 284 5,200 -1,380 Descending Kansas City Center
09:00PM 36.1975 -95.6147 274° West 246 283 4,600 -1,200 Descending Kansas City Center
09:00PM 36.1967 -95.6614 269° West 245 282 4,000 -1,080 Descending Kansas City Center
09:01PM 36.1975 -95.6986 272° West 244 281 3,500 -1,200 Descending Kansas City Center
09:01PM 36.1956 -95.7469 267° West 226 260 2,800 -1,020 Descending Kansas City Center
09:02PM 36.1956 -95.7694 270° West 221 254 2,500 -1,020 Descending Kansas City Center
09:02PM 36.1961 -95.8011 271° West 148 170 1,800 -1,140 Descending Kansas City Center
09:03PM 36.1961 -95.8214 270° West 176 203 1,400 -840 Descending Kansas City Center
09:03PM 36.1944 -95.8531 266° West 139 160 1,000 -600 Descending Kansas City Center
09:04PM 36.1958 -95.8706 276° West 156 180 800 -420 Descending Kansas City Center